Time;durP1;ratioP1;P1;durP2;ratioP2;P2;SDS_P1;SDS_P2;PMS_P1;PMS_P2;Temp;Humidity;BMP_temperature;BMP_pressure;BME280_temperature;BME280_humidity;BME280_pressure;Samples;Min_cycle;Max_cycle;Signal;HPM_P1;HPM_P2
2022/08/31 00:04:34;;;;;;;3.77;1.90;;;;;;;16.25;71.54;101899.13;1658992;84;21010;-84
2022/08/31 00:07:01;;;;;;;5.92;1.72;;;;;;;16.12;71.62;101892.27;1670271;85;21918;-84
2022/08/31 00:09:29;;;;;;;3.62;1.72;;;;;;;16.04;71.75;101891.63;1706468;83;22492;-84
2022/08/31 00:11:56;;;;;;;2.40;1.47;;;;;;;15.96;71.86;101894.13;1673567;84;20988;-84
2022/08/31 00:14:23;;;;;;;2.85;1.65;;;;;;;15.89;72.01;101893.09;1708567;83;21021;-84
2022/08/31 00:16:49;;;;;;;4.10;1.52;;;;;;;15.83;72.13;101883.67;1678771;84;21031;-84
2022/08/31 00:19:16;;;;;;;2.60;1.37;;;;;;;15.79;72.16;101885.80;1680235;83;21011;-84
2022/08/31 00:21:43;;;;;;;5.45;1.47;;;;;;;15.74;72.21;101886.12;1705119;83;21738;-84
2022/08/31 00:24:10;;;;;;;4.87;2.37;;;;;;;15.70;72.33;101885.13;1676958;85;21426;-84
2022/08/31 00:26:37;;;;;;;3.83;1.60;;;;;;;15.67;72.35;101894.37;1674304;85;21012;-83
2022/08/31 00:29:04;;;;;;;3.83;1.10;;;;;;;15.62;72.37;101896.02;1690314;83;20985;-84
2022/08/31 00:31:30;;;;;;;3.65;1.50;;;;;;;15.58;72.38;101898.14;1684551;83;21031;-86
2022/08/31 00:33:57;;;;;;;2.95;1.45;;;;;;;15.54;72.47;101898.50;1683173;85;21822;-86
2022/08/31 00:36:25;;;;;;;4.28;1.80;;;;;;;15.52;72.53;101897.97;1664593;84;20977;-86
2022/08/31 00:38:52;;;;;;;2.83;1.22;;;;;;;15.49;72.65;101902.80;1676475;85;21011;-86
2022/08/31 00:41:23;;;;;;;5.83;1.77;;;;;;;15.49;72.67;101901.91;1664269;85;21240;-86
2022/08/31 00:43:59;;;;;;;3.35;1.50;;;;;;;15.48;72.74;101900.09;1644862;86;21060;-86
2022/08/31 00:46:30;;;;;;;4.40;1.77;;;;;;;15.47;72.69;101899.21;1664994;84;22603;-86
2022/08/31 00:49:07;;;;;;;5.12;1.50;;;;;;;15.46;72.59;101905.80;1675698;85;20984;-87
2022/08/31 00:51:39;;;;;;;3.35;1.37;;;;;;;15.43;72.53;101903.06;1654083;84;21049;-86
2022/08/31 00:54:07;;;;;;;4.65;1.60;;;;;;;15.42;72.46;101903.94;1694170;83;21340;-86
2022/08/31 00:56:34;;;;;;;2.15;1.20;;;;;;;15.46;72.41;101907.13;1694494;84;21003;-86
2022/08/31 00:59:01;;;;;;;4.25;1.32;;;;;;;15.47;72.27;101909.83;1694383;84;21737;-87
2022/08/31 01:01:29;;;;;;;4.00;1.30;;;;;;;15.47;72.17;101903.63;1680019;84;21458;-86
2022/08/31 01:03:56;;;;;;;4.20;1.37;;;;;;;15.45;72.06;101906.23;1679800;85;21007;-86
2022/08/31 01:06:23;;;;;;;2.72;1.07;;;;;;;15.42;71.99;101901.29;1674382;84;21380;-86
2022/08/31 01:08:49;;;;;;;4.08;1.20;;;;;;;15.40;71.95;101903.91;1676577;85;21046;-86
2022/08/31 01:11:16;;;;;;;3.17;1.40;;;;;;;15.38;71.93;101906.06;1674688;84;21783;-87
2022/08/31 01:13:46;;;;;;;5.25;1.25;;;;;;;15.35;71.89;101905.14;1704576;83;20999;-87
2022/08/31 01:16:17;;;;;;;3.62;1.20;;;;;;;15.33;71.89;101904.61;1688461;83;21074;-87
2022/08/31 01:18:44;;;;;;;3.58;1.07;;;;;;;15.33;71.89;101913.89;1692297;83;20992;-86
2022/08/31 01:21:22;;;;;;;4.00;1.40;;;;;;;15.33;71.91;101908.19;1675125;84;21019;-86
2022/08/31 01:23:49;;;;;;;2.10;1.17;;;;;;;15.36;71.90;101911.33;1693932;83;21738;-86
2022/08/31 01:26:19;;;;;;;5.30;1.20;;;;;;;15.39;71.89;101904.78;1688372;83;20979;-87
2022/08/31 01:28:45;;;;;;;1.67;0.85;;;;;;;15.42;71.84;101908.81;1696507;83;20984;-86
2022/08/31 01:31:23;;;;;;;3.20;1.20;;;;;;;15.44;71.71;101907.53;1681036;83;21349;-87
2022/08/31 01:33:50;;;;;;;4.60;1.05;;;;;;;15.43;71.63;101907.97;1692212;83;21031;-87
2022/08/31 01:36:17;;;;;;;3.60;1.05;;;;;;;15.39;71.53;101903.86;1686867;84;21794;-87
2022/08/31 01:38:44;;;;;;;2.25;1.10;;;;;;;15.32;71.49;101903.72;1679673;84;20984;-86
2022/08/31 01:41:15;;;;;;;3.15;0.98;;;;;;;15.25;71.49;101900.45;1707093;83;21015;-85
2022/08/31 01:43:39;;;;;;;2.25;1.02;;;;;;;15.19;71.53;101905.61;1702689;83;21011;-85
2022/08/31 01:46:09;;;;;;;2.30;1.20;;;;;;;15.13;71.51;101909.02;1704237;83;21106;-84
2022/08/31 01:48:36;;;;;;;4.42;1.37;;;;;;;15.07;71.52;101905.30;1702810;83;21739;-84
2022/08/31 01:51:03;;;;;;;5.47;1.12;;;;;;;15.02;71.55;101913.59;1664408;84;21528;-85
2022/08/31 01:53:30;;;;;;;5.75;1.10;;;;;;;14.95;71.57;101910.76;1684300;85;21004;-85
2022/08/31 01:55:57;;;;;;;4.80;1.35;;;;;;;14.91;71.61;101910.22;1674380;85;21260;-84
2022/08/31 01:58:24;;;;;;;4.35;1.45;;;;;;;14.87;71.61;101910.11;1681084;85;20976;-85
2022/08/31 02:00:51;;;;;;;1.75;0.98;;;;;;;14.82;71.66;101911.30;1719485;83;21735;-84
2022/08/31 02:03:18;;;;;;;3.58;1.32;;;;;;;14.79;71.70;101916.55;1695294;83;21031;-87
2022/08/31 02:05:45;;;;;;;5.42;1.92;;;;;;;14.76;71.76;101913.80;1702289;83;20975;-85
2022/08/31 02:08:12;;;;;;;4.85;1.07;;;;;;;14.74;71.78;101918.16;1643706;85;21043;-85
2022/08/31 02:10:38;;;;;;;3.20;1.32;;;;;;;14.71;71.76;101913.66;1650053;86;21079;-84
2022/08/31 02:13:05;;;;;;;1.65;1.10;;;;;;;14.68;71.73;101914.92;1607811;88;21744;-84
2022/08/31 02:15:32;;;;;;;5.60;1.37;;;;;;;14.64;71.74;101918.36;1665694;85;20994;-84
2022/08/31 02:17:59;;;;;;;2.17;1.17;;;;;;;14.60;71.75;101920.42;1680906;84;21602;-84
2022/08/31 02:20:26;;;;;;;5.55;1.90;;;;;;;14.55;71.80;101918.95;1678749;85;21379;-87
2022/08/31 02:22:53;;;;;;;8.63;1.62;;;;;;;14.51;71.82;101918.41;1677197;85;21066;-87
2022/08/31 02:25:20;;;;;;;5.47;1.22;;;;;;;14.48;71.86;101916.10;1677715;84;21278;-84
2022/08/31 02:27:47;;;;;;;4.85;1.40;;;;;;;14.43;71.92;101917.28;1684362;84;21030;-84
2022/08/31 02:30:16;;;;;;;5.80;1.62;;;;;;;14.40;71.94;101921.19;1665972;84;21055;-84
2022/08/31 02:32:43;;;;;;;5.53;1.80;;;;;;;14.37;71.96;101916.68;1644183;84;21368;-84
2022/08/31 02:35:10;;;;;;;3.52;1.17;;;;;;;14.34;72.02;101915.29;1681124;84;21143;-84
2022/08/31 02:37:37;;;;;;;3.77;1.77;;;;;;;14.30;72.05;101915.14;1661008;85;21805;-85
2022/08/31 02:40:07;;;;;;;7.83;2.65;;;;;;;14.28;72.08;101914.20;1656130;85;21026;-87
2022/08/31 02:42:33;;;;;;;9.55;1.80;;;;;;;14.25;72.16;101918.11;1691261;84;21600;-87
2022/08/31 02:45:00;;;;;;;6.28;2.10;;;;;;;14.20;72.21;101920.17;1698363;83;21618;-87
2022/08/31 02:47:29;;;;;;;8.70;1.32;;;;;;;14.16;72.29;101916.97;1706249;83;21603;-87
2022/08/31 02:49:57;;;;;;;2.65;1.10;;;;;;;14.10;72.33;101910.63;1686860;84;21772;-87
2022/08/31 02:52:23;;;;;;;3.30;1.55;;;;;;;14.08;72.42;101916.30;1708203;83;21010;-85
2022/08/31 02:54:50;;;;;;;3.50;1.75;;;;;;;14.05;72.50;101911.80;1689200;83;21591;-85
2022/08/31 02:57:17;;;;;;;3.50;1.30;;;;;;;14.03;72.52;101916.59;1671725;84;21365;-84
2022/08/31 02:59:44;;;;;;;4.95;1.30;;;;;;;14.00;72.64;101908.10;1674049;84;21435;-87
2022/08/31 03:02:10;;;;;;;4.20;1.20;;;;;;;13.96;72.64;101907.15;1672607;84;22509;-85
2022/08/31 03:04:37;;;;;;;3.67;1.30;;;;;;;13.93;72.73;101900.86;1682651;85;21007;-85
2022/08/31 03:07:04;;;;;;;4.60;1.57;;;;;;;13.89;72.82;101910.86;1680772;85;21104;-85
2022/08/31 03:09:31;;;;;;;4.08;1.00;;;;;;;13.85;72.88;101909.91;1681698;85;21417;-85
2022/08/31 03:11:59;;;;;;;4.85;1.47;;;;;;;13.81;72.96;101914.60;1682339;85;21024;-85
2022/08/31 03:14:25;;;;;;;5.72;1.32;;;;;;;13.77;73.08;101911.39;1681649;83;21729;-85
2022/08/31 03:16:53;;;;;;;2.67;1.20;;;;;;;13.74;73.14;101906.00;1681159;85;20987;-85
2022/08/31 03:19:20;;;;;;;2.40;0.95;;;;;;;13.70;73.22;101910.33;1679047;83;21023;-85
2022/08/31 03:21:46;;;;;;;5.40;1.25;;;;;;;13.69;73.31;101911.59;1669741;85;20991;-86
2022/08/31 03:24:16;;;;;;;4.00;1.07;;;;;;;13.68;73.40;101917.29;1684347;85;21031;-85
2022/08/31 03:26:43;;;;;;;4.65;1.42;;;;;;;13.68;73.47;101917.73;1674666;84;21812;-86
2022/08/31 03:29:10;;;;;;;4.87;1.70;;;;;;;13.68;73.56;101912.44;1677969;83;20983;-85
2022/08/31 03:31:36;;;;;;;4.17;1.65;;;;;;;13.68;73.60;101917.29;1683473;84;21003;-85
2022/08/31 03:34:03;;;;;;;3.92;1.10;;;;;;;13.68;73.64;101914.64;1683812;83;21035;-87
2022/08/31 03:36:30;;;;;;;5.22;1.60;;;;;;;13.68;73.74;101919.94;1689046;83;21000;-86
2022/08/31 03:38:57;;;;;;;6.87;2.27;;;;;;;13.70;73.80;101925.28;1675216;85;21602;-86
2022/08/31 03:41:24;;;;;;;2.90;1.62;;;;;;;13.72;73.89;101923.58;1682031;83;21486;-86
2022/08/31 03:43:51;;;;;;;1.35;1.00;;;;;;;13.78;74.02;101922.47;1665433;85;20993;-86
2022/08/31 03:46:18;;;;;;;2.77;1.22;;;;;;;13.87;74.06;101918.78;1684889;85;21795;-86
2022/08/31 03:48:47;;;;;;;5.47;1.57;;;;;;;13.96;73.98;101928.33;1684301;85;21003;-86
2022/08/31 03:51:14;;;;;;;6.60;1.50;;;;;;;13.99;73.79;101924.86;1702238;83;21770;-88
2022/08/31 03:53:42;;;;;;;4.97;2.15;;;;;;;14.00;73.77;101931.93;1687438;83;21016;-87
2022/08/31 03:56:08;;;;;;;3.80;1.52;;;;;;;14.01;73.74;101932.42;1704351;83;21921;-87
2022/08/31 03:58:36;;;;;;;2.60;1.42;;;;;;;14.04;73.78;101931.20;1683096;84;20980;-86
2022/08/31 04:01:03;;;;;;;5.08;1.60;;;;;;;14.06;73.81;101932.13;1688692;83;21039;-86
2022/08/31 04:03:29;;;;;;;4.72;1.17;;;;;;;14.12;73.79;101938.03;1681545;85;21759;-86
2022/08/31 04:05:56;;;;;;;2.85;1.20;;;;;;;14.15;73.75;101940.75;1680646;85;20992;-85
2022/08/31 04:08:24;;;;;;;3.37;1.42;;;;;;;14.19;73.77;101936.94;1678966;85;21434;-86
2022/08/31 04:10:52;;;;;;;4.28;1.30;;;;;;;14.25;73.74;101940.62;1681068;85;20981;-87
2022/08/31 04:13:18;;;;;;;4.37;1.50;;;;;;;14.29;73.74;101935.88;1683385;85;21038;-86
2022/08/31 04:15:45;;;;;;;4.70;1.30;;;;;;;14.34;73.79;101937.80;1680429;83;21730;-86
2022/08/31 04:18:13;;;;;;;3.67;1.12;;;;;;;14.43;73.78;101937.58;1683306;85;21004;-87
2022/08/31 04:20:40;;;;;;;4.22;1.75;;;;;;;14.50;73.74;101939.55;1682249;85;21024;-88
2022/08/31 04:23:06;;;;;;;3.90;1.55;;;;;;;14.55;73.66;101944.56;1674715;85;21563;-86
2022/08/31 04:25:40;;;;;;;2.20;1.22;;;;;;;14.61;73.67;101946.08;1648915;86;21501;-86
2022/08/31 04:28:07;;;;;;;3.83;1.40;;;;;;;14.68;73.62;101944.08;1648691;86;22457;-86
2022/08/31 04:30:40;;;;;;;4.92;1.50;;;;;;;14.74;73.57;101944.23;1652030;85;20991;-87
2022/08/31 04:33:06;;;;;;;5.30;1.52;;;;;;;14.83;73.59;101944.00;1678836;83;20995;-87
2022/08/31 04:35:33;;;;;;;3.90;1.12;;;;;;;14.93;73.61;101947.38;1681855;83;21481;-86
2022/08/31 04:38:00;;;;;;;3.80;2.15;;;;;;;14.99;73.54;101949.30;1677007;85;21139;-86
2022/08/31 04:40:27;;;;;;;2.77;1.55;;;;;;;15.05;73.65;101948.11;1681064;84;22568;-86
2022/08/31 04:42:53;;;;;;;5.78;4.03;;;;;;;15.18;73.78;101952.88;1684417;83;21009;-87
2022/08/31 04:45:20;;;;;;;6.47;2.70;;;;;;;15.36;73.92;101952.01;1679728;84;21381;-87
2022/08/31 04:47:47;;;;;;;4.12;2.30;;;;;;;15.61;73.93;101949.05;1682221;85;21399;-86
2022/08/31 04:50:15;;;;;;;5.08;1.87;;;;;;;15.84;73.73;101950.94;1682904;85;21074;-86
2022/08/31 04:52:44;;;;;;;5.47;2.42;;;;;;;16.08;73.61;101948.81;1675538;85;21812;-87
2022/08/31 04:55:10;;;;;;;7.58;1.57;;;;;;;16.38;73.34;101950.32;1674287;84;21020;-88
2022/08/31 04:57:37;;;;;;;6.42;2.00;;;;;;;16.66;72.81;101949.10;1673087;85;21003;-87
2022/08/31 05:00:06;;;;;;;3.10;1.95;;;;;;;16.73;72.38;101946.58;1654670;83;20964;-88
2022/08/31 05:02:33;;;;;;;11.85;2.05;;;;;;;16.72;72.06;101945.66;1678090;84;21005;-86
2022/08/31 05:05:00;;;;;;;7.42;1.90;;;;;;;16.70;71.82;101945.66;1682480;84;21752;-87
2022/08/31 05:07:27;;;;;;;7.08;2.02;;;;;;;16.76;71.71;101946.62;1681627;85;21032;-88
2022/08/31 05:09:53;;;;;;;5.60;1.62;;;;;;;16.85;71.44;101943.72;1681368;85;21458;-87
2022/08/31 05:12:21;;;;;;;3.75;1.77;;;;;;;16.92;71.39;101946.52;1683888;85;21390;-87
2022/08/31 05:14:48;;;;;;;7.92;1.77;;;;;;;17.04;71.35;101951.63;1681542;85;21007;-88
2022/08/31 05:17:15;;;;;;;10.03;1.87;;;;;;;17.11;71.01;101944.63;1681607;85;21748;-89
2022/08/31 05:19:42;;;;;;;4.60;1.70;;;;;;;17.14;70.90;101947.80;1652494;86;21554;-88
2022/08/31 05:22:10;;;;;;;5.83;2.08;;;;;;;17.18;70.71;101947.86;1650257;86;21106;-87
2022/08/31 05:24:37;;;;;;;5.33;3.25;;;;;;;17.24;70.66;101951.06;1614377;86;21424;-85
2022/08/31 05:27:10;;;;;;;2.77;1.82;;;;;;;17.33;70.68;101950.33;1620200;87;21055;-85
2022/08/31 05:29:40;;;;;;;7.25;4.95;;;;;;;17.38;70.47;101943.29;1553340;89;22049;-89
2022/08/31 05:32:07;;;;;;;4.00;1.87;;;;;;;17.55;70.51;101943.14;1605413;88;21004;-87
2022/08/31 05:34:34;;;;;;;4.55;1.75;;;;;;;17.71;70.26;101944.25;1604520;87;21510;-86
2022/08/31 05:37:01;;;;;;;5.25;2.10;;;;;;;17.94;70.02;101947.70;1589711;89;21034;-86
2022/08/31 05:39:29;;;;;;;5.92;3.60;;;;;;;18.10;69.68;101941.72;1631229;86;21033;-85
2022/08/31 05:41:57;;;;;;;5.87;2.98;;;;;;;18.22;69.24;101952.52;1641256;86;21756;-86
2022/08/31 05:44:25;;;;;;;5.72;1.67;;;;;;;18.37;69.11;101949.15;1627500;86;21118;-87
2022/08/31 05:46:58;;;;;;;3.95;1.40;;;;;;;18.56;68.88;101953.36;1640044;86;21568;-87
2022/08/31 05:49:23;;;;;;;2.35;1.40;;;;;;;18.65;68.75;101953.02;1647317;86;21069;-85
2022/08/31 05:51:50;;;;;;;4.97;2.10;;;;;;;18.78;68.40;101959.84;1650035;86;21017;-85
2022/08/31 05:54:25;;;;;;;6.17;1.70;;;;;;;18.83;67.95;101955.48;1628896;86;21752;-87
2022/08/31 05:56:51;;;;;;;2.98;1.50;;;;;;;18.91;67.88;101959.56;1649213;86;21069;-88
2022/08/31 05:59:18;;;;;;;5.50;1.30;;;;;;;18.97;67.68;101955.16;1631057;86;21057;-85
2022/08/31 06:01:44;;;;;;;9.43;1.85;;;;;;;18.99;67.41;101961.84;1628350;86;21026;-90
2022/08/31 06:04:11;;;;;;;4.10;1.80;;;;;;;18.97;67.21;101960.95;1635802;86;21104;-87
2022/08/31 06:06:38;;;;;;;4.35;1.50;;;;;;;18.94;67.03;101959.56;1643031;86;21757;-88
2022/08/31 06:09:06;;;;;;;10.30;1.92;;;;;;;18.96;67.16;101964.06;1641956;86;21026;-88
2022/08/31 06:11:33;;;;;;;3.70;1.57;;;;;;;19.05;67.08;101959.27;1642279;86;21050;-89
2022/08/31 06:14:01;;;;;;;4.62;1.50;;;;;;;19.19;67.23;101962.92;1612726;86;21436;-92
2022/08/31 06:16:29;;;;;;;4.03;1.60;;;;;;;19.32;67.01;101967.05;1602208;88;21058;-90
2022/08/31 06:18:56;;;;;;;8.68;1.62;;;;;;;19.43;66.34;101974.25;1613852;86;21675;-89
2022/08/31 06:21:25;;;;;;;5.37;1.30;;;;;;;19.31;65.45;101965.25;1596734;88;21513;-90
2022/08/31 06:23:53;;;;;;;8.65;1.17;;;;;;;19.14;65.27;101957.98;1603189;87;21023;-90
2022/08/31 06:26:21;;;;;;;3.62;1.30;;;;;;;19.17;65.06;101983.83;1624720;86;21064;-90
2022/08/31 06:28:51;;;;;;;7.25;1.37;;;;;;;19.15;64.83;101985.14;1644653;85;21033;-85
2022/08/31 06:31:27;;;;;;;5.20;1.70;;;;;;;19.12;64.80;101981.55;1639860;85;21755;-85
2022/08/31 06:33:54;;;;;;;3.67;1.60;;;;;;;19.17;64.89;101976.70;1642628;85;21442;-85
2022/08/31 06:36:24;;;;;;;3.02;1.42;;;;;;;19.19;64.55;101970.94;1618717;87;21120;-85
2022/08/31 06:38:55;;;;;;;6.65;1.98;;;;;;;19.31;64.45;101985.27;1620513;88;21165;-88
2022/08/31 06:41:27;;;;;;;5.83;4.15;;;;;;;19.42;64.03;101987.14;1619762;88;21033;-88
2022/08/31 06:43:54;;;;;;;5.28;2.20;;;;;;;19.55;63.93;101983.24;1617663;88;21831;-89
2022/08/31 06:46:22;;;;;;;3.00;2.15;;;;;;;19.76;63.86;101987.88;1628456;88;20997;-89
2022/08/31 06:48:56;;;;;;;7.30;3.00;;;;;;;19.90;63.52;101994.21;1612606;85;21028;-90
2022/08/31 06:51:23;;;;;;;7.37;2.58;;;;;;;19.99;63.01;101989.37;1627444;86;21028;-88
2022/08/31 06:53:51;;;;;;;2.80;1.60;;;;;;;19.99;62.30;101996.94;1617283;86;21091;-88
2022/08/31 06:56:24;;;;;;;4.47;1.67;;;;;;;19.90;62.24;101996.00;1619571;86;21230;-88
2022/08/31 06:58:56;;;;;;;8.55;2.30;;;;;;;19.88;61.92;101999.99;1620369;87;21080;-88
2022/08/31 07:01:27;;;;;;;5.75;2.12;;;;;;;19.73;61.62;101986.09;1617212;87;21076;-88
2022/08/31 07:04:13;;;;;;;6.67;1.60;;;;;;;19.73;61.62;101986.09;1625114;86;21035;-88
2022/08/31 07:06:43;;;;;;;5.25;2.12;;;;;;;19.55;61.14;101994.81;1622053;85;21073;-85
2022/08/31 07:09:14;;;;;;;8.40;1.50;;;;;;;19.55;61.14;101994.81;1647383;85;21750;-87
2022/08/31 07:11:44;;;;;;;4.35;1.32;;;;;;;19.65;61.64;102004.23;1628455;86;21024;-86
2022/08/31 07:14:14;;;;;;;3.20;1.10;;;;;;;19.68;61.40;101981.56;1637174;85;21036;-87
2022/08/31 07:16:41;;;;;;;8.03;1.90;;;;;;;19.68;61.40;101981.56;1613595;87;21840;-87
2022/08/31 07:19:08;;;;;;;7.05;3.60;;;;;;;19.79;61.05;101987.91;1668311;84;20993;-84
2022/08/31 07:24:08;;;;;;;13.43;2.02;;;;;;;19.84;60.72;101998.61;1855915;76;23624;-87
2022/08/31 07:26:42;;;;;;;6.25;1.90;;;;;;;19.89;60.78;101998.20;1767176;80;21045;-86
2022/08/31 07:29:10;;;;;;;;;;;;;;;19.88;60.65;101991.09;1772451;78;21780;-86
2022/08/31 07:31:46;;;;;;;4.33;1.20;;;;;;;19.89;59.70;102003.09;1778407;78;20220;-89
2022/08/31 07:34:27;;;;;;;8.15;1.55;;;;;;;19.89;59.70;102003.09;1785239;78;21117;-88
2022/08/31 07:42:29;;;;;;;1.87;0.75;;;;;;;19.60;58.83;101992.20;1775472;78;22010;-84
2022/08/31 07:44:57;;;;;;;2.80;0.80;;;;;;;19.60;58.83;101992.20;1760767;80;21579;-89
2022/08/31 07:47:27;;;;;;;2.67;1.22;;;;;;;19.70;58.61;101990.48;1775876;78;21046;-86
2022/08/31 07:49:53;;;;;;;2.72;1.10;;;;;;;19.86;58.18;101993.75;1780652;79;21623;-87
2022/08/31 07:52:26;;;;;;;3.83;1.02;;;;;;;20.20;58.14;102004.18;1755611;80;21160;-88
2022/08/31 07:54:55;;;;;;;2.02;1.00;;;;;;;20.38;57.75;102007.81;1774828;79;21753;-86
2022/08/31 07:57:24;;;;;;;10.70;1.60;;;;;;;20.18;57.67;101973.88;1744545;81;21422;-88
2022/08/31 08:00:07;;;;;;;3.70;1.00;;;;;;;20.31;57.62;102022.95;1771011;79;21320;-85
2022/08/31 08:02:24;;;;;;;3.02;1.17;;;;;;;20.24;58.00;102028.27;1758826;80;21056;-90
2022/08/31 08:04:52;;;;;;;5.03;1.10;;;;;;;20.23;57.93;102026.47;1767929;78;21086;-86
2022/08/31 08:07:38;;;;;;;3.72;1.47;;;;;;;20.22;58.46;102032.27;1779849;80;21810;-89
2022/08/31 08:10:12;;;;;;;1.60;0.93;;;;;;;20.11;57.98;102007.25;1749933;80;21564;-85
2022/08/31 08:12:41;;;;;;;;;;;;;;;20.29;57.99;102030.50;1785330;78;21070;-91
2022/08/31 08:15:09;;;;;;;4.22;1.20;;;;;;;20.31;57.57;102052.79;1779665;80;20502;-85
2022/08/31 08:17:36;;;;;;;5.42;1.10;;;;;;;20.20;57.63;102045.62;1756218;80;21632;-85
2022/08/31 08:20:04;;;;;;;3.27;1.70;;;;;;;20.07;57.84;102044.21;1769748;78;21808;-86
2022/08/31 08:22:39;;;;;;;3.45;1.70;;;;;;;19.76;57.97;102018.59;1767457;78;21608;-89
2022/08/31 08:25:07;;;;;;;2.80;1.25;;;;;;;19.76;57.97;102018.59;1783322;79;21109;-86
2022/08/31 08:27:34;;;;;;;3.02;0.80;;;;;;;19.61;57.03;102041.62;1751127;80;21058;-91
2022/08/31 08:30:06;;;;;;;2.10;0.88;;;;;;;19.61;57.03;102041.62;1727704;82;21156;-86
2022/08/31 08:32:34;;;;;;;3.52;1.05;;;;;;;19.31;57.41;102056.91;1730237;81;23327;-86
2022/08/31 08:35:03;;;;;;;2.45;0.90;;;;;;;19.31;57.41;102068.91;1696963;82;21013;-85
2022/08/31 08:37:29;;;;;;;0.90;0.70;;;;;;;19.28;57.64;102062.69;1689892;82;21128;-85
2022/08/31 08:39:58;;;;;;;3.12;1.00;;;;;;;19.22;57.12;102054.17;1710447;83;21103;-89
2022/08/31 08:42:25;;;;;;;3.90;0.90;;;;;;;19.20;57.38;102056.82;1704231;83;21754;-85
2022/08/31 08:44:51;;;;;;;1.65;0.80;;;;;;;19.13;56.35;102042.95;1729982;81;21757;-86
2022/08/31 08:47:21;;;;;;;4.17;0.80;;;;;;;19.13;56.35;102042.95;1705431;83;21111;-85
2022/08/31 08:49:54;;;;;;;5.85;0.98;;;;;;;19.28;56.72;102050.67;1699190;83;21218;-86
2022/08/31 08:52:40;;;;;;;2.20;1.10;;;;;;;19.35;56.98;102070.77;1707919;82;21040;-87
2022/08/31 08:55:20;;;;;;;5.75;3.65;;;;;;;19.46;56.83;102069.50;1721282;82;21095;-84
2022/08/31 08:57:54;;;;;;;3.25;2.37;;;;;;;19.58;55.69;102068.75;1730562;81;21881;-88
2022/08/31 09:00:28;;;;;;;2.20;0.90;;;;;;;19.70;55.39;102061.27;1737492;80;21277;-88
2022/08/31 09:03:16;;;;;;;1.62;0.88;;;;;;;19.77;55.26;102061.81;1760455;80;21297;-86
2022/08/31 09:05:58;;;;;;;2.52;0.62;;;;;;;19.74;55.09;102070.67;1751597;80;21079;-85
2022/08/31 09:08:49;;;;;;;3.83;1.22;;;;;;;19.78;55.01;102080.95;1793378;79;21071;-84
2022/08/31 09:12:03;;;;;;;2.15;1.02;;;;;;;19.79;55.09;102066.72;1780066;80;22693;-85
2022/08/31 09:15:19;;;;;;;2.85;0.90;;;;;;;19.88;54.98;102075.27;1785764;78;21070;-86
2022/08/31 09:18:04;;;;;;;3.77;0.88;;;;;;;19.86;54.72;102063.64;1787099;78;21046;-85
2022/08/31 09:20:32;;;;;;;3.45;1.27;;;;;;;19.96;54.75;102077.54;1754711;79;21049;-84
2022/08/31 09:22:59;;;;;;;2.45;0.90;;;;;;;20.01;54.52;102071.80;1761978;80;21087;-85
2022/08/31 09:25:37;;;;;;;2.40;0.90;;;;;;;20.06;55.17;102061.12;1739515;80;22599;-85
2022/08/31 09:28:13;;;;;;;4.30;0.80;;;;;;;20.08;54.77;102067.36;1752348;79;21149;-85
2022/08/31 09:31:05;;;;;;;;;;;;;;;;;;;;;
2022/08/31 09:33:29;;;;;;;4.03;1.47;;;;;;;20.04;55.52;102073.58;1760278;78;21074;-86
2022/08/31 09:36:25;;;;;;;3.92;1.60;;;;;;;20.09;55.16;102075.84;1738050;80;21106;-89
2022/08/31 09:38:52;;;;;;;2.65;1.02;;;;;;;20.12;55.44;102062.48;1673447;83;21730;-90
2022/08/31 09:41:32;;;;;;;1.60;0.80;;;;;;;20.41;55.59;102058.66;1676716;83;21148;-90
2022/08/31 09:44:23;;;;;;;3.42;1.30;;;;;;;20.59;55.35;102053.40;1718448;82;21110;-89
2022/08/31 09:46:53;;;;;;;3.37;0.90;;;;;;;20.24;54.91;102053.22;1708795;82;21183;-89
2022/08/31 09:49:28;;;;;;;5.78;1.30;;;;;;;20.24;54.91;102053.22;1729074;81;21092;-90
2022/08/31 09:52:19;;;;;;;4.25;0.82;;;;;;;20.15;54.74;102082.11;1679961;82;21601;-88
2022/08/31 09:55:16;;;;;;;3.40;0.95;;;;;;;20.02;55.29;102076.69;1642368;85;21663;-89
2022/08/31 09:57:57;;;;;;;2.08;1.05;;;;;;;19.90;55.32;102083.73;1634157;86;21128;-89
2022/08/31 10:00:40;;;;;;;3.22;2.50;;;;;;;19.65;55.16;102094.59;1636613;86;21129;-89
2022/08/31 10:03:24;;;;;;;5.33;2.05;;;;;;;19.46;55.52;102074.84;1642386;86;21260;-88
2022/08/31 10:05:55;;;;;;;5.80;2.33;;;;;;;19.41;55.40;102093.95;1638444;85;21771;-89
2022/08/31 10:08:52;;;;;;;3.00;1.10;;;;;;;19.38;55.47;102090.80;1648423;85;21107;-89
2022/08/31 10:11:19;;;;;;;2.67;1.00;;;;;;;19.36;55.30;102072.98;1613021;86;21450;-90
2022/08/31 10:13:53;;;;;;;1.95;0.70;;;;;;;19.37;55.57;102076.09;1645184;85;21620;-89
2022/08/31 10:16:36;;;;;;;7.47;1.72;;;;;;;19.37;55.05;102081.02;1688123;81;21088;-88
2022/08/31 10:19:10;;;;;;;3.72;0.70;;;;;;;19.33;54.95;102083.20;1683019;82;21774;-88
2022/08/31 10:22:02;;;;;;;1.47;0.70;;;;;;;19.31;55.12;102085.38;1668387;84;21115;-87
2022/08/31 10:24:43;;;;;;;2.30;1.12;;;;;;;19.30;54.85;102077.83;1656808;84;21110;-90
2022/08/31 10:27:37;;;;;;;1.45;0.80;;;;;;;19.25;54.21;102072.87;1671843;84;21111;-87
2022/08/31 10:30:26;;;;;;;3.77;2.62;;;;;;;19.23;53.32;102070.63;1692570;78;21124;-88
2022/08/31 10:33:13;;;;;;;2.05;1.17;;;;;;;19.20;53.56;102071.91;1763799;78;21782;-88
2022/08/31 10:35:56;;;;;;;3.55;1.17;;;;;;;19.25;54.00;102067.53;1758481;78;21073;-89
2022/08/31 10:38:36;;;;;;;3.47;2.37;;;;;;;19.22;53.55;102078.20;1777297;78;21037;-86
2022/08/31 10:41:21;;;;;;;3.90;0.88;;;;;;;19.16;53.64;102068.77;1750297;80;21125;-84
2022/08/31 10:44:23;;;;;;;2.17;0.70;;;;;;;19.16;53.80;102062.09;1779985;78;21114;-84
2022/08/31 10:46:44;;;;;;;1.95;0.95;;;;;;;19.20;53.60;102071.91;1773973;78;21700;-90
2022/08/31 10:49:12;;;;;;;1.67;0.90;;;;;;;19.15;53.33;102089.23;1738786;80;21081;-84
2022/08/31 10:52:05;;;;;;;1.60;0.90;;;;;;;19.09;52.90;102063.82;1772989;80;21100;-83
2022/08/31 10:55:05;;;;;;;5.25;4.50;;;;;;;19.12;52.60;102061.61;1765183;80;22067;-86
2022/08/31 10:57:54;;;;;;;1.90;0.93;;;;;;;19.16;52.08;102067.02;1771732;80;21555;-85
2022/08/31 11:00:40;;;;;;;8.03;1.90;;;;;;;19.16;51.95;102059.42;1757219;79;22458;-85
2022/08/31 11:03:30;;;;;;;3.98;0.82;;;;;;;19.14;52.05;102072.75;1759232;79;21162;-84
2022/08/31 11:06:31;;;;;;;1.77;0.90;;;;;;;19.11;52.07;102074.52;1790658;78;21046;-85
2022/08/31 11:09:05;;;;;;;4.62;1.45;;;;;;;19.07;51.92;102074.00;1778939;78;21996;-87
2022/08/31 11:11:58;;;;;;;1.67;0.82;;;;;;;19.11;52.41;102076.73;1787970;78;21431;-87
2022/08/31 11:14:25;;;;;;;3.17;1.17;;;;;;;19.14;52.28;102063.86;1747382;80;22515;-87
2022/08/31 11:17:22;;;;;;;2.05;0.93;;;;;;;19.18;52.16;102069.26;1784250;78;21072;-88
2022/08/31 11:20:40;;;;;;;2.42;0.82;;;;;;;19.21;52.37;102066.60;1760568;80;21034;-86
2022/08/31 11:23:21;;;;;;;2.90;1.02;;;;;;;19.26;52.38;102065.75;1788391;78;21702;-87
2022/08/31 11:26:25;;;;;;;0.90;0.70;;;;;;;19.34;52.73;102061.39;1772827;79;21112;-87
2022/08/31 11:28:57;;;;;;;4.10;1.12;;;;;;;19.36;52.27;102069.87;1711331;82;21993;-85
2022/08/31 11:31:26;;;;;;;;;;;;;;;19.19;52.33;102028.77;1780553;78;21018;-86
2022/08/31 11:34:11;;;;;;;2.02;0.95;;;;;;;19.36;52.30;102065.86;1796695;78;20208;-91
2022/08/31 11:36:53;;;;;;;2.60;1.12;;;;;;;19.35;52.42;102060.08;1785916;79;21073;-89
2022/08/31 11:39:57;;;;;;;;;;;;;;;;;;;;;
2022/08/31 11:42:36;;;;;;;2.77;0.75;;;;;;;19.41;51.99;102088.17;1714961;79;21208;-88
2022/08/31 11:45:19;;;;;;;1.60;0.80;;;;;;;19.34;51.48;102066.73;1772489;78;21002;-88
2022/08/31 11:47:46;;;;;;;2.40;0.85;;;;;;;19.33;52.27;102053.84;1749761;78;21088;-90
2022/08/31 11:50:37;;;;;;;2.20;1.30;;;;;;;19.29;52.53;102054.66;1788520;78;21083;-88
2022/08/31 11:53:30;;;;;;;2.75;0.95;;;;;;;19.31;52.92;102058.69;1785972;78;21083;-90
2022/08/31 11:56:05;;;;;;;1.62;1.10;;;;;;;19.32;53.09;102049.81;1782669;78;21782;-87
2022/08/31 11:58:31;;;;;;;5.28;1.85;;;;;;;19.39;53.14;102063.69;1788965;78;21041;-88
2022/08/31 12:01:08;;;;;;;0.90;0.65;;;;;;;19.42;53.28;102052.56;1780690;78;21558;-88
2022/08/31 12:03:52;;;;;;;1.57;0.60;;;;;;;19.37;53.18;102032.03;1746640;80;21057;-88